sensor_id;sensor_type;location;lat;lon;timestamp;P1;durP1;ratioP1;P2;durP2;ratioP2
81336;SDS011;70799;48.000;10.584;2023-08-21T00:01:08;10.93;;;6.93;;
81336;SDS011;70799;48.000;10.584;2023-08-21T00:03:42;9.57;;;6.57;;
81336;SDS011;70799;48.000;10.584;2023-08-21T00:06:21;9.30;;;6.70;;
81336;SDS011;70799;48.000;10.584;2023-08-21T00:08:54;9.38;;;6.82;;
81336;SDS011;70799;48.000;10.584;2023-08-21T00:11:27;8.88;;;5.70;;
81336;SDS011;70799;48.000;10.584;2023-08-21T00:14:04;7.78;;;5.80;;
81336;SDS011;70799;48.000;10.584;2023-08-21T00:16:37;8.50;;;6.57;;
81336;SDS011;70799;48.000;10.584;2023-08-21T00:19:11;8.95;;;6.28;;
81336;SDS011;70799;48.000;10.584;2023-08-21T00:21:44;10.80;;;7.00;;
81336;SDS011;70799;48.000;10.584;2023-08-21T00:24:18;9.35;;;6.10;;
81336;SDS011;70799;48.000;10.584;2023-08-21T00:26:56;9.55;;;6.63;;
81336;SDS011;70799;48.000;10.584;2023-08-21T00:29:29;10.25;;;6.72;;
81336;SDS011;70799;48.000;10.584;2023-08-21T00:32:12;9.73;;;6.20;;
81336;SDS011;70799;48.000;10.584;2023-08-21T00:34:51;9.98;;;6.35;;
81336;SDS011;70799;48.000;10.584;2023-08-21T00:37:25;8.70;;;5.72;;
81336;SDS011;70799;48.000;10.584;2023-08-21T00:39:58;9.40;;;6.40;;
81336;SDS011;70799;48.000;10.584;2023-08-21T00:42:33;8.82;;;6.45;;
81336;SDS011;70799;48.000;10.584;2023-08-21T00:45:07;8.57;;;5.93;;
81336;SDS011;70799;48.000;10.584;2023-08-21T00:47:42;9.70;;;6.75;;
81336;SDS011;70799;48.000;10.584;2023-08-21T00:50:19;12.23;;;6.68;;
81336;SDS011;70799;48.000;10.584;2023-08-21T00:52:52;8.85;;;6.15;;
81336;SDS011;70799;48.000;10.584;2023-08-21T00:55:27;8.80;;;6.10;;
81336;SDS011;70799;48.000;10.584;2023-08-21T00:58:00;8.18;;;5.85;;
81336;SDS011;70799;48.000;10.584;2023-08-21T01:00:36;7.00;;;6.10;;
81336;SDS011;70799;48.000;10.584;2023-08-21T01:03:10;7.55;;;5.82;;
81336;SDS011;70799;48.000;10.584;2023-08-21T01:05:48;10.60;;;6.57;;
81336;SDS011;70799;48.000;10.584;2023-08-21T01:08:25;8.52;;;6.80;;
81336;SDS011;70799;48.000;10.584;2023-08-21T01:11:35;8.00;;;6.45;;
81336;SDS011;70799;48.000;10.584;2023-08-21T01:17:29;8.57;;;6.57;;
81336;SDS011;70799;48.000;10.584;2023-08-21T01:20:03;9.05;;;6.93;;
81336;SDS011;70799;48.000;10.584;2023-08-21T01:22:40;9.32;;;6.75;;
81336;SDS011;70799;48.000;10.584;2023-08-21T01:25:22;10.35;;;6.93;;
81336;SDS011;70799;48.000;10.584;2023-08-21T01:27:55;10.57;;;6.43;;
81336;SDS011;70799;48.000;10.584;2023-08-21T01:30:28;8.40;;;6.05;;
81336;SDS011;70799;48.000;10.584;2023-08-21T01:33:06;9.27;;;6.65;;
81336;SDS011;70799;48.000;10.584;2023-08-21T01:35:44;10.15;;;6.75;;
81336;SDS011;70799;48.000;10.584;2023-08-21T01:38:18;9.45;;;6.50;;
81336;SDS011;70799;48.000;10.584;2023-08-21T01:40:51;12.02;;;6.40;;
81336;SDS011;70799;48.000;10.584;2023-08-21T01:43:26;9.60;;;6.90;;
81336;SDS011;70799;48.000;10.584;2023-08-21T01:46:00;8.45;;;6.35;;
81336;SDS011;70799;48.000;10.584;2023-08-21T01:48:34;9.32;;;6.60;;
81336;SDS011;70799;48.000;10.584;2023-08-21T01:51:08;7.93;;;5.88;;
81336;SDS011;70799;48.000;10.584;2023-08-21T01:53:59;7.15;;;6.45;;
81336;SDS011;70799;48.000;10.584;2023-08-21T01:56:34;8.82;;;6.47;;
81336;SDS011;70799;48.000;10.584;2023-08-21T01:59:08;9.25;;;6.68;;
81336;SDS011;70799;48.000;10.584;2023-08-21T02:01:41;9.13;;;6.35;;
81336;SDS011;70799;48.000;10.584;2023-08-21T02:04:14;9.13;;;6.28;;
81336;SDS011;70799;48.000;10.584;2023-08-21T02:06:47;8.88;;;6.28;;
81336;SDS011;70799;48.000;10.584;2023-08-21T02:09:21;10.02;;;6.28;;
81336;SDS011;70799;48.000;10.584;2023-08-21T02:11:54;11.35;;;6.60;;
81336;SDS011;70799;48.000;10.584;2023-08-21T02:14:27;13.15;;;6.65;;
81336;SDS011;70799;48.000;10.584;2023-08-21T02:17:03;9.23;;;5.97;;
81336;SDS011;70799;48.000;10.584;2023-08-21T02:19:36;11.70;;;7.28;;
81336;SDS011;70799;48.000;10.584;2023-08-21T02:22:20;9.68;;;6.88;;
81336;SDS011;70799;48.000;10.584;2023-08-21T02:24:54;11.63;;;7.45;;
81336;SDS011;70799;48.000;10.584;2023-08-21T02:27:31;9.23;;;6.95;;
81336;SDS011;70799;48.000;10.584;2023-08-21T02:30:05;10.77;;;6.28;;
81336;SDS011;70799;48.000;10.584;2023-08-21T02:32:39;7.85;;;6.68;;
81336;SDS011;70799;48.000;10.584;2023-08-21T02:35:12;10.60;;;6.10;;
81336;SDS011;70799;48.000;10.584;2023-08-21T02:37:46;9.05;;;6.82;;
81336;SDS011;70799;48.000;10.584;2023-08-21T02:40:20;11.43;;;7.25;;
81336;SDS011;70799;48.000;10.584;2023-08-21T02:42:53;9.60;;;6.28;;
81336;SDS011;70799;48.000;10.584;2023-08-21T02:45:26;8.77;;;6.82;;
81336;SDS011;70799;48.000;10.584;2023-08-21T02:50:38;9.85;;;6.22;;
81336;SDS011;70799;48.000;10.584;2023-08-21T02:53:12;10.43;;;5.93;;
81336;SDS011;70799;48.000;10.584;2023-08-21T02:55:49;8.93;;;7.35;;
81336;SDS011;70799;48.000;10.584;2023-08-21T02:58:22;9.30;;;6.25;;
81336;SDS011;70799;48.000;10.584;2023-08-21T03:00:56;8.85;;;6.35;;
81336;SDS011;70799;48.000;10.584;2023-08-21T03:03:34;9.18;;;6.57;;
81336;SDS011;70799;48.000;10.584;2023-08-21T03:06:07;9.73;;;6.50;;
81336;SDS011;70799;48.000;10.584;2023-08-21T03:08:40;9.70;;;6.50;;
81336;SDS011;70799;48.000;10.584;2023-08-21T03:11:14;8.18;;;6.50;;
81336;SDS011;70799;48.000;10.584;2023-08-21T03:13:50;7.57;;;6.13;;
81336;SDS011;70799;48.000;10.584;2023-08-21T03:16:23;9.10;;;6.95;;
81336;SDS011;70799;48.000;10.584;2023-08-21T03:19:02;8.98;;;6.68;;
81336;SDS011;70799;48.000;10.584;2023-08-21T03:21:36;9.05;;;6.75;;
81336;SDS011;70799;48.000;10.584;2023-08-21T03:24:13;8.40;;;6.68;;
81336;SDS011;70799;48.000;10.584;2023-08-21T03:26:48;10.63;;;7.55;;
81336;SDS011;70799;48.000;10.584;2023-08-21T03:29:21;9.98;;;6.68;;
81336;SDS011;70799;48.000;10.584;2023-08-21T03:31:55;8.68;;;6.63;;
81336;SDS011;70799;48.000;10.584;2023-08-21T03:34:29;9.40;;;6.47;;
81336;SDS011;70799;48.000;10.584;2023-08-21T03:37:06;9.82;;;5.95;;
81336;SDS011;70799;48.000;10.584;2023-08-21T03:39:40;9.60;;;6.00;;
81336;SDS011;70799;48.000;10.584;2023-08-21T03:42:15;11.13;;;6.93;;
81336;SDS011;70799;48.000;10.584;2023-08-21T03:44:49;9.82;;;6.38;;
81336;SDS011;70799;48.000;10.584;2023-08-21T03:47:23;7.50;;;5.93;;
81336;SDS011;70799;48.000;10.584;2023-08-21T03:50:02;10.20;;;6.88;;
81336;SDS011;70799;48.000;10.584;2023-08-21T03:52:36;11.00;;;6.13;;
81336;SDS011;70799;48.000;10.584;2023-08-21T03:55:12;11.20;;;6.30;;
81336;SDS011;70799;48.000;10.584;2023-08-21T03:57:46;8.70;;;6.10;;
81336;SDS011;70799;48.000;10.584;2023-08-21T04:00:19;9.50;;;6.03;;
81336;SDS011;70799;48.000;10.584;2023-08-21T04:02:54;7.43;;;5.45;;
81336;SDS011;70799;48.000;10.584;2023-08-21T04:05:27;9.45;;;6.60;;
81336;SDS011;70799;48.000;10.584;2023-08-21T04:08:01;8.00;;;6.15;;
81336;SDS011;70799;48.000;10.584;2023-08-21T04:10:35;8.13;;;6.55;;
81336;SDS011;70799;48.000;10.584;2023-08-21T04:15:48;10.52;;;6.80;;
81336;SDS011;70799;48.000;10.584;2023-08-21T04:18:22;10.73;;;7.07;;
81336;SDS011;70799;48.000;10.584;2023-08-21T04:21:11;9.10;;;6.53;;
81336;SDS011;70799;48.000;10.584;2023-08-21T04:23:45;9.82;;;6.18;;
81336;SDS011;70799;48.000;10.584;2023-08-21T04:26:22;10.57;;;6.45;;
81336;SDS011;70799;48.000;10.584;2023-08-21T04:28:55;10.95;;;6.90;;
81336;SDS011;70799;48.000;10.584;2023-08-21T04:31:28;13.75;;;7.45;;
81336;SDS011;70799;48.000;10.584;2023-08-21T04:34:04;9.52;;;7.40;;
81336;SDS011;70799;48.000;10.584;2023-08-21T04:36:38;13.00;;;7.15;;
81336;SDS011;70799;48.000;10.584;2023-08-21T04:39:11;8.77;;;6.65;;
81336;SDS011;70799;48.000;10.584;2023-08-21T04:41:44;8.90;;;6.97;;
81336;SDS011;70799;48.000;10.584;2023-08-21T04:44:17;9.85;;;6.63;;
81336;SDS011;70799;48.000;10.584;2023-08-21T04:46:51;10.82;;;7.55;;
81336;SDS011;70799;48.000;10.584;2023-08-21T04:49:24;8.48;;;7.13;;
81336;SDS011;70799;48.000;10.584;2023-08-21T04:51:59;9.98;;;7.25;;
81336;SDS011;70799;48.000;10.584;2023-08-21T04:54:33;12.48;;;6.80;;
81336;SDS011;70799;48.000;10.584;2023-08-21T04:57:06;9.43;;;6.80;;
81336;SDS011;70799;48.000;10.584;2023-08-21T04:59:39;9.88;;;7.13;;
81336;SDS011;70799;48.000;10.584;2023-08-21T05:02:13;9.32;;;7.20;;
81336;SDS011;70799;48.000;10.584;2023-08-21T05:04:46;7.70;;;6.88;;
81336;SDS011;70799;48.000;10.584;2023-08-21T05:07:21;9.30;;;7.50;;
81336;SDS011;70799;48.000;10.584;2023-08-21T05:09:54;8.55;;;6.82;;
81336;SDS011;70799;48.000;10.584;2023-08-21T05:12:27;8.93;;;6.78;;
81336;SDS011;70799;48.000;10.584;2023-08-21T05:15:02;10.95;;;8.02;;
81336;SDS011;70799;48.000;10.584;2023-08-21T05:17:36;9.43;;;7.13;;
81336;SDS011;70799;48.000;10.584;2023-08-21T05:20:11;11.18;;;6.47;;
81336;SDS011;70799;48.000;10.584;2023-08-21T05:22:47;9.50;;;6.88;;
81336;SDS011;70799;48.000;10.584;2023-08-21T05:25:20;9.68;;;6.85;;
81336;SDS011;70799;48.000;10.584;2023-08-21T05:27:53;9.40;;;6.85;;
81336;SDS011;70799;48.000;10.584;2023-08-21T05:30:26;8.77;;;7.32;;
81336;SDS011;70799;48.000;10.584;2023-08-21T05:32:59;8.13;;;6.95;;
81336;SDS011;70799;48.000;10.584;2023-08-21T05:35:38;9.30;;;7.25;;
81336;SDS011;70799;48.000;10.584;2023-08-21T05:38:14;8.45;;;7.10;;
81336;SDS011;70799;48.000;10.584;2023-08-21T05:40:48;9.38;;;7.22;;
81336;SDS011;70799;48.000;10.584;2023-08-21T05:43:25;10.80;;;7.40;;
81336;SDS011;70799;48.000;10.584;2023-08-21T05:45:58;9.57;;;6.45;;
81336;SDS011;70799;48.000;10.584;2023-08-21T05:48:33;11.98;;;7.57;;
81336;SDS011;70799;48.000;10.584;2023-08-21T05:51:07;12.27;;;7.70;;
81336;SDS011;70799;48.000;10.584;2023-08-21T05:53:40;9.95;;;7.38;;
81336;SDS011;70799;48.000;10.584;2023-08-21T05:56:16;10.73;;;7.47;;
81336;SDS011;70799;48.000;10.584;2023-08-21T05:58:51;10.15;;;6.93;;
81336;SDS011;70799;48.000;10.584;2023-08-21T06:01:42;9.18;;;7.85;;
81336;SDS011;70799;48.000;10.584;2023-08-21T06:04:23;8.60;;;7.70;;
81336;SDS011;70799;48.000;10.584;2023-08-21T06:07:06;7.90;;;6.65;;
81336;SDS011;70799;48.000;10.584;2023-08-21T06:09:40;13.80;;;8.30;;
81336;SDS011;70799;48.000;10.584;2023-08-21T06:12:13;10.30;;;7.30;;
81336;SDS011;70799;48.000;10.584;2023-08-21T06:14:48;9.70;;;7.18;;
81336;SDS011;70799;48.000;10.584;2023-08-21T06:17:21;10.25;;;7.22;;
81336;SDS011;70799;48.000;10.584;2023-08-21T06:19:55;11.57;;;6.97;;
81336;SDS011;70799;48.000;10.584;2023-08-21T06:22:28;12.20;;;7.38;;
81336;SDS011;70799;48.000;10.584;2023-08-21T06:25:01;8.57;;;5.65;;
81336;SDS011;70799;48.000;10.584;2023-08-21T06:27:35;11.45;;;6.38;;
81336;SDS011;70799;48.000;10.584;2023-08-21T06:30:26;9.38;;;7.18;;
81336;SDS011;70799;48.000;10.584;2023-08-21T06:33:04;11.48;;;7.60;;
81336;SDS011;70799;48.000;10.584;2023-08-21T06:35:37;10.18;;;7.85;;
81336;SDS011;70799;48.000;10.584;2023-08-21T06:38:11;9.52;;;6.47;;
81336;SDS011;70799;48.000;10.584;2023-08-21T06:40:45;9.85;;;7.65;;
81336;SDS011;70799;48.000;10.584;2023-08-21T06:43:18;9.43;;;7.07;;
81336;SDS011;70799;48.000;10.584;2023-08-21T06:46:01;12.30;;;7.47;;
81336;SDS011;70799;48.000;10.584;2023-08-21T06:48:37;8.13;;;7.07;;
81336;SDS011;70799;48.000;10.584;2023-08-21T06:51:12;9.23;;;6.45;;
81336;SDS011;70799;48.000;10.584;2023-08-21T06:53:48;8.60;;;6.72;;
81336;SDS011;70799;48.000;10.584;2023-08-21T06:56:21;10.20;;;7.15;;
81336;SDS011;70799;48.000;10.584;2023-08-21T06:58:55;8.80;;;6.38;;
81336;SDS011;70799;48.000;10.584;2023-08-21T07:01:28;9.77;;;6.85;;
81336;SDS011;70799;48.000;10.584;2023-08-21T07:04:01;10.27;;;6.25;;
81336;SDS011;70799;48.000;10.584;2023-08-21T07:06:35;7.97;;;6.28;;
81336;SDS011;70799;48.000;10.584;2023-08-21T07:09:08;7.28;;;6.50;;
81336;SDS011;70799;48.000;10.584;2023-08-21T07:11:42;9.63;;;6.85;;
81336;SDS011;70799;48.000;10.584;2023-08-21T07:14:16;11.50;;;6.28;;
81336;SDS011;70799;48.000;10.584;2023-08-21T07:16:50;9.18;;;7.32;;
81336;SDS011;70799;48.000;10.584;2023-08-21T07:19:23;9.13;;;6.72;;
81336;SDS011;70799;48.000;10.584;2023-08-21T07:21:57;8.05;;;6.90;;
81336;SDS011;70799;48.000;10.584;2023-08-21T07:24:32;9.02;;;6.22;;
81336;SDS011;70799;48.000;10.584;2023-08-21T07:27:06;7.20;;;6.22;;
81336;SDS011;70799;48.000;10.584;2023-08-21T07:29:39;8.65;;;6.07;;
81336;SDS011;70799;48.000;10.584;2023-08-21T07:32:13;9.00;;;6.53;;
81336;SDS011;70799;48.000;10.584;2023-08-21T07:34:46;10.38;;;7.38;;
81336;SDS011;70799;48.000;10.584;2023-08-21T07:37:20;9.68;;;7.72;;
81336;SDS011;70799;48.000;10.584;2023-08-21T07:39:53;8.27;;;6.55;;
81336;SDS011;70799;48.000;10.584;2023-08-21T07:42:32;9.60;;;6.18;;
81336;SDS011;70799;48.000;10.584;2023-08-21T07:45:05;9.20;;;6.43;;
81336;SDS011;70799;48.000;10.584;2023-08-21T07:47:39;6.45;;;5.50;;
81336;SDS011;70799;48.000;10.584;2023-08-21T07:50:12;11.88;;;6.72;;
81336;SDS011;70799;48.000;10.584;2023-08-21T07:52:48;12.10;;;6.30;;
81336;SDS011;70799;48.000;10.584;2023-08-21T07:55:21;8.45;;;6.10;;
81336;SDS011;70799;48.000;10.584;2023-08-21T07:57:55;11.57;;;6.70;;
81336;SDS011;70799;48.000;10.584;2023-08-21T08:00:28;10.88;;;6.82;;
81336;SDS011;70799;48.000;10.584;2023-08-21T08:03:01;8.88;;;6.75;;
81336;SDS011;70799;48.000;10.584;2023-08-21T08:05:35;8.07;;;6.60;;
81336;SDS011;70799;48.000;10.584;2023-08-21T08:08:08;12.20;;;6.82;;
81336;SDS011;70799;48.000;10.584;2023-08-21T08:10:42;10.20;;;7.18;;
81336;SDS011;70799;48.000;10.584;2023-08-21T08:13:15;9.95;;;6.22;;
81336;SDS011;70799;48.000;10.584;2023-08-21T08:15:49;9.13;;;7.38;;
81336;SDS011;70799;48.000;10.584;2023-08-21T08:18:23;9.32;;;6.35;;
81336;SDS011;70799;48.000;10.584;2023-08-21T08:20:56;14.25;;;7.03;;
81336;SDS011;70799;48.000;10.584;2023-08-21T08:23:29;9.70;;;6.68;;
81336;SDS011;70799;48.000;10.584;2023-08-21T08:26:02;10.20;;;6.97;;
81336;SDS011;70799;48.000;10.584;2023-08-21T08:28:37;9.77;;;6.95;;
81336;SDS011;70799;48.000;10.584;2023-08-21T08:31:14;9.05;;;6.65;;
81336;SDS011;70799;48.000;10.584;2023-08-21T08:33:48;10.32;;;7.45;;
81336;SDS011;70799;48.000;10.584;2023-08-21T08:36:21;16.95;;;7.70;;
81336;SDS011;70799;48.000;10.584;2023-08-21T08:38:55;9.65;;;6.68;;
81336;SDS011;70799;48.000;10.584;2023-08-21T08:41:44;10.20;;;6.60;;
81336;SDS011;70799;48.000;10.584;2023-08-21T08:44:26;8.15;;;6.43;;
81336;SDS011;70799;48.000;10.584;2023-08-21T08:47:00;7.50;;;6.13;;
81336;SDS011;70799;48.000;10.584;2023-08-21T08:49:34;12.30;;;7.00;;
81336;SDS011;70799;48.000;10.584;2023-08-21T08:52:07;12.02;;;6.65;;
81336;SDS011;70799;48.000;10.584;2023-08-21T08:54:40;9.60;;;6.53;;
81336;SDS011;70799;48.000;10.584;2023-08-21T08:57:13;8.73;;;6.40;;
81336;SDS011;70799;48.000;10.584;2023-08-21T08:59:46;8.93;;;5.40;;
81336;SDS011;70799;48.000;10.584;2023-08-21T09:02:26;7.78;;;6.88;;
81336;SDS011;70799;48.000;10.584;2023-08-21T09:05:00;8.95;;;6.40;;
81336;SDS011;70799;48.000;10.584;2023-08-21T09:07:35;9.00;;;7.15;;
81336;SDS011;70799;48.000;10.584;2023-08-21T09:10:18;8.55;;;6.20;;
81336;SDS011;70799;48.000;10.584;2023-08-21T09:12:51;7.88;;;5.97;;
81336;SDS011;70799;48.000;10.584;2023-08-21T09:15:27;8.50;;;7.20;;
81336;SDS011;70799;48.000;10.584;2023-08-21T09:18:12;8.35;;;6.15;;
81336;SDS011;70799;48.000;10.584;2023-08-21T09:20:46;10.10;;;6.80;;
81336;SDS011;70799;48.000;10.584;2023-08-21T09:23:20;9.95;;;6.50;;
81336;SDS011;70799;48.000;10.584;2023-08-21T09:25:53;9.82;;;6.68;;
81336;SDS011;70799;48.000;10.584;2023-08-21T09:28:27;10.20;;;6.28;;
81336;SDS011;70799;48.000;10.584;2023-08-21T09:31:02;6.47;;;5.50;;
81336;SDS011;70799;48.000;10.584;2023-08-21T09:33:35;9.52;;;6.15;;
81336;SDS011;70799;48.000;10.584;2023-08-21T09:36:09;6.85;;;6.05;;
81336;SDS011;70799;48.000;10.584;2023-08-21T09:38:45;8.88;;;5.82;;
81336;SDS011;70799;48.000;10.584;2023-08-21T09:41:19;8.18;;;6.65;;
81336;SDS011;70799;48.000;10.584;2023-08-21T09:43:53;7.57;;;5.72;;
81336;SDS011;70799;48.000;10.584;2023-08-21T09:46:34;10.15;;;5.72;;
81336;SDS011;70799;48.000;10.584;2023-08-21T09:49:11;14.00;;;5.38;;
81336;SDS011;70799;48.000;10.584;2023-08-21T09:51:45;19.98;;;8.93;;
81336;SDS011;70799;48.000;10.584;2023-08-21T09:54:18;7.50;;;5.53;;
81336;SDS011;70799;48.000;10.584;2023-08-21T09:57:00;8.10;;;5.60;;
81336;SDS011;70799;48.000;10.584;2023-08-21T09:59:39;7.47;;;5.28;;
81336;SDS011;70799;48.000;10.584;2023-08-21T10:02:14;6.20;;;5.60;;
81336;SDS011;70799;48.000;10.584;2023-08-21T10:04:47;6.50;;;5.75;;
81336;SDS011;70799;48.000;10.584;2023-08-21T10:07:22;7.15;;;6.03;;
81336;SDS011;70799;48.000;10.584;2023-08-21T10:09:59;9.00;;;5.53;;
81336;SDS011;70799;48.000;10.584;2023-08-21T10:12:35;7.68;;;6.22;;
81336;SDS011;70799;48.000;10.584;2023-08-21T10:15:09;7.80;;;5.68;;
81336;SDS011;70799;48.000;10.584;2023-08-21T10:17:45;7.03;;;5.35;;
81336;SDS011;70799;48.000;10.584;2023-08-21T10:20:22;6.85;;;5.68;;
81336;SDS011;70799;48.000;10.584;2023-08-21T10:23:00;9.05;;;5.82;;
81336;SDS011;70799;48.000;10.584;2023-08-21T10:25:42;8.15;;;5.53;;
81336;SDS011;70799;48.000;10.584;2023-08-21T10:28:15;7.22;;;5.40;;
81336;SDS011;70799;48.000;10.584;2023-08-21T10:30:49;7.70;;;5.35;;
81336;SDS011;70799;48.000;10.584;2023-08-21T10:33:44;6.60;;;5.45;;
81336;SDS011;70799;48.000;10.584;2023-08-21T10:39:19;6.15;;;5.28;;
81336;SDS011;70799;48.000;10.584;2023-08-21T10:42:00;6.00;;;5.40;;
81336;SDS011;70799;48.000;10.584;2023-08-21T10:44:49;7.85;;;5.47;;
81336;SDS011;70799;48.000;10.584;2023-08-21T10:47:31;8.88;;;6.15;;
81336;SDS011;70799;48.000;10.584;2023-08-21T10:50:07;7.13;;;5.82;;
81336;SDS011;70799;48.000;10.584;2023-08-21T10:52:42;8.48;;;5.72;;
81336;SDS011;70799;48.000;10.584;2023-08-21T10:55:17;8.32;;;6.07;;
81336;SDS011;70799;48.000;10.584;2023-08-21T10:57:51;9.38;;;6.55;;
81336;SDS011;70799;48.000;10.584;2023-08-21T11:00:24;9.52;;;6.43;;
81336;SDS011;70799;48.000;10.584;2023-08-21T11:02:57;10.05;;;5.97;;
81336;SDS011;70799;48.000;10.584;2023-08-21T11:05:32;10.40;;;6.03;;
81336;SDS011;70799;48.000;10.584;2023-08-21T11:08:06;7.28;;;5.45;;
81336;SDS011;70799;48.000;10.584;2023-08-21T11:10:43;7.15;;;6.40;;
81336;SDS011;70799;48.000;10.584;2023-08-21T11:13:22;7.97;;;5.75;;
81336;SDS011;70799;48.000;10.584;2023-08-21T11:16:00;6.60;;;5.78;;
81336;SDS011;70799;48.000;10.584;2023-08-21T11:18:38;10.20;;;7.03;;
81336;SDS011;70799;48.000;10.584;2023-08-21T11:21:11;7.30;;;5.85;;
81336;SDS011;70799;48.000;10.584;2023-08-21T11:23:48;10.50;;;6.13;;
81336;SDS011;70799;48.000;10.584;2023-08-21T11:26:22;7.97;;;5.75;;
81336;SDS011;70799;48.000;10.584;2023-08-21T11:28:58;7.18;;;6.43;;
81336;SDS011;70799;48.000;10.584;2023-08-21T11:31:34;8.27;;;5.90;;
81336;SDS011;70799;48.000;10.584;2023-08-21T11:34:17;9.18;;;5.82;;
81336;SDS011;70799;48.000;10.584;2023-08-21T11:36:54;9.10;;;5.68;;
81336;SDS011;70799;48.000;10.584;2023-08-21T11:39:49;8.80;;;6.47;;
81336;SDS011;70799;48.000;10.584;2023-08-21T11:42:29;8.00;;;6.63;;
81336;SDS011;70799;48.000;10.584;2023-08-21T11:45:04;10.93;;;6.47;;
81336;SDS011;70799;48.000;10.584;2023-08-21T11:47:41;8.57;;;5.97;;
81336;SDS011;70799;48.000;10.584;2023-08-21T11:50:14;11.50;;;5.25;;
81336;SDS011;70799;48.000;10.584;2023-08-21T11:52:53;7.55;;;5.90;;
81336;SDS011;70799;48.000;10.584;2023-08-21T11:55:28;9.52;;;5.47;;
81336;SDS011;70799;48.000;10.584;2023-08-21T11:58:09;10.32;;;5.28;;
81336;SDS011;70799;48.000;10.584;2023-08-21T12:00:42;10.63;;;5.80;;
81336;SDS011;70799;48.000;10.584;2023-08-21T12:03:17;10.18;;;5.82;;
81336;SDS011;70799;48.000;10.584;2023-08-21T12:05:51;7.25;;;5.93;;
81336;SDS011;70799;48.000;10.584;2023-08-21T12:08:24;9.15;;;6.40;;
81336;SDS011;70799;48.000;10.584;2023-08-21T12:10:57;11.30;;;5.95;;
81336;SDS011;70799;48.000;10.584;2023-08-21T12:13:32;7.13;;;6.22;;
81336;SDS011;70799;48.000;10.584;2023-08-21T12:16:06;9.45;;;6.07;;
81336;SDS011;70799;48.000;10.584;2023-08-21T12:18:48;10.15;;;5.13;;
81336;SDS011;70799;48.000;10.584;2023-08-21T12:21:23;9.18;;;5.82;;
81336;SDS011;70799;48.000;10.584;2023-08-21T12:24:01;6.40;;;5.35;;
81336;SDS011;70799;48.000;10.584;2023-08-21T12:26:35;7.53;;;5.75;;
81336;SDS011;70799;48.000;10.584;2023-08-21T12:29:24;8.38;;;6.05;;
81336;SDS011;70799;48.000;10.584;2023-08-21T12:31:58;8.35;;;5.40;;
81336;SDS011;70799;48.000;10.584;2023-08-21T12:34:33;6.50;;;5.75;;
81336;SDS011;70799;48.000;10.584;2023-08-21T12:37:06;6.85;;;5.68;;
81336;SDS011;70799;48.000;10.584;2023-08-21T12:39:42;8.00;;;5.75;;
81336;SDS011;70799;48.000;10.584;2023-08-21T12:42:33;8.00;;;6.43;;
81336;SDS011;70799;48.000;10.584;2023-08-21T12:45:08;8.27;;;6.25;;
81336;SDS011;70799;48.000;10.584;2023-08-21T12:47:42;7.20;;;5.93;;
81336;SDS011;70799;48.000;10.584;2023-08-21T12:50:27;6.03;;;4.97;;
81336;SDS011;70799;48.000;10.584;2023-08-21T12:53:03;6.68;;;5.10;;
81336;SDS011;70799;48.000;10.584;2023-08-21T12:55:47;7.75;;;5.45;;
81336;SDS011;70799;48.000;10.584;2023-08-21T12:58:28;7.93;;;5.45;;
81336;SDS011;70799;48.000;10.584;2023-08-21T13:01:03;10.07;;;5.35;;
81336;SDS011;70799;48.000;10.584;2023-08-21T13:03:37;6.13;;;5.40;;
81336;SDS011;70799;48.000;10.584;2023-08-21T13:06:11;7.95;;;5.47;;
81336;SDS011;70799;48.000;10.584;2023-08-21T13:08:47;8.23;;;5.25;;
81336;SDS011;70799;48.000;10.584;2023-08-21T13:11:28;8.55;;;5.22;;
81336;SDS011;70799;48.000;10.584;2023-08-21T13:14:29;7.10;;;5.40;;
81336;SDS011;70799;48.000;10.584;2023-08-21T13:19:37;8.40;;;4.65;;
81336;SDS011;70799;48.000;10.584;2023-08-21T13:22:10;8.48;;;5.10;;
81336;SDS011;70799;48.000;10.584;2023-08-21T13:24:51;6.43;;;4.47;;
81336;SDS011;70799;48.000;10.584;2023-08-21T13:27:28;7.18;;;5.28;;
81336;SDS011;70799;48.000;10.584;2023-08-21T13:30:03;6.38;;;4.85;;
81336;SDS011;70799;48.000;10.584;2023-08-21T13:32:37;6.90;;;5.05;;
81336;SDS011;70799;48.000;10.584;2023-08-21T13:35:24;9.27;;;5.20;;
81336;SDS011;70799;48.000;10.584;2023-08-21T13:37:57;6.97;;;4.50;;
81336;SDS011;70799;48.000;10.584;2023-08-21T13:40:35;5.68;;;4.68;;
81336;SDS011;70799;48.000;10.584;2023-08-21T13:43:08;9.18;;;4.70;;
81336;SDS011;70799;48.000;10.584;2023-08-21T13:45:44;6.75;;;4.63;;
81336;SDS011;70799;48.000;10.584;2023-08-21T13:48:20;7.38;;;4.53;;
81336;SDS011;70799;48.000;10.584;2023-08-21T13:50:56;9.35;;;4.10;;
81336;SDS011;70799;48.000;10.584;2023-08-21T13:53:33;7.78;;;4.32;;
81336;SDS011;70799;48.000;10.584;2023-08-21T13:56:08;9.68;;;4.68;;
81336;SDS011;70799;48.000;10.584;2023-08-21T13:58:43;5.93;;;4.72;;
81336;SDS011;70799;48.000;10.584;2023-08-21T14:01:19;6.35;;;4.35;;
81336;SDS011;70799;48.000;10.584;2023-08-21T14:03:54;7.15;;;3.90;;
81336;SDS011;70799;48.000;10.584;2023-08-21T14:06:33;5.97;;;4.47;;
81336;SDS011;70799;48.000;10.584;2023-08-21T14:09:07;6.50;;;5.00;;
81336;SDS011;70799;48.000;10.584;2023-08-21T14:11:40;9.30;;;4.82;;
81336;SDS011;70799;48.000;10.584;2023-08-21T14:14:16;8.40;;;4.30;;
81336;SDS011;70799;48.000;10.584;2023-08-21T14:16:50;6.50;;;5.03;;
81336;SDS011;70799;48.000;10.584;2023-08-21T14:19:26;6.80;;;4.45;;
81336;SDS011;70799;48.000;10.584;2023-08-21T14:22:00;7.43;;;4.78;;
81336;SDS011;70799;48.000;10.584;2023-08-21T14:24:41;8.20;;;5.07;;
81336;SDS011;70799;48.000;10.584;2023-08-21T14:27:17;8.68;;;4.80;;
81336;SDS011;70799;48.000;10.584;2023-08-21T14:29:54;6.18;;;4.85;;
81336;SDS011;70799;48.000;10.584;2023-08-21T14:32:35;7.15;;;4.85;;
81336;SDS011;70799;48.000;10.584;2023-08-21T14:35:15;6.15;;;4.18;;
81336;SDS011;70799;48.000;10.584;2023-08-21T14:37:48;8.60;;;4.72;;
81336;SDS011;70799;48.000;10.584;2023-08-21T14:40:22;6.22;;;4.22;;
81336;SDS011;70799;48.000;10.584;2023-08-21T14:43:00;6.10;;;4.88;;
81336;SDS011;70799;48.000;10.584;2023-08-21T14:45:41;8.10;;;5.15;;
81336;SDS011;70799;48.000;10.584;2023-08-21T14:48:16;7.25;;;5.03;;
81336;SDS011;70799;48.000;10.584;2023-08-21T14:50:59;6.22;;;4.32;;
81336;SDS011;70799;48.000;10.584;2023-08-21T14:53:32;8.43;;;4.93;;
81336;SDS011;70799;48.000;10.584;2023-08-21T14:56:06;7.22;;;4.93;;
81336;SDS011;70799;48.000;10.584;2023-08-21T14:58:46;7.72;;;5.35;;
81336;SDS011;70799;48.000;10.584;2023-08-21T15:01:21;6.93;;;4.43;;
81336;SDS011;70799;48.000;10.584;2023-08-21T15:03:55;9.32;;;4.70;;
81336;SDS011;70799;48.000;10.584;2023-08-21T15:06:31;14.15;;;5.90;;
81336;SDS011;70799;48.000;10.584;2023-08-21T15:09:05;8.43;;;6.05;;
81336;SDS011;70799;48.000;10.584;2023-08-21T15:11:43;5.90;;;5.20;;
81336;SDS011;70799;48.000;10.584;2023-08-21T15:14:16;9.25;;;4.88;;
81336;SDS011;70799;48.000;10.584;2023-08-21T15:16:50;11.40;;;5.88;;
81336;SDS011;70799;48.000;10.584;2023-08-21T15:19:42;6.80;;;5.43;;
81336;SDS011;70799;48.000;10.584;2023-08-21T15:22:20;6.85;;;4.82;;
81336;SDS011;70799;48.000;10.584;2023-08-21T15:24:53;7.20;;;4.78;;
81336;SDS011;70799;48.000;10.584;2023-08-21T15:27:26;10.85;;;5.85;;
81336;SDS011;70799;48.000;10.584;2023-08-21T15:29:59;7.28;;;5.40;;
81336;SDS011;70799;48.000;10.584;2023-08-21T15:32:34;10.85;;;6.47;;
81336;SDS011;70799;48.000;10.584;2023-08-21T15:35:08;8.45;;;5.85;;